Time;durP1;ratioP1;P1;durP2;ratioP2;P2;SDS_P1;SDS_P2;PMS_P1;PMS_P2;Temp;Humidity;BMP_temperature;BMP_pressure;BME280_temperature;BME280_humidity;BME280_pressure;Samples;Min_cycle;Max_cycle;Signal;HPM_P1;HPM_P2
2022/07/06 00:02:03;;;;;;;3.40;2.20;;;26.80;40.60;;;;;;5093920;27;20318;-44
2022/07/06 00:04:29;;;;;;;5.20;2.70;;;26.80;40.70;;;;;;5100818;27;20215;-46
2022/07/06 00:06:54;;;;;;;2.87;2.67;;;26.80;40.80;;;;;;5100183;28;20468;-44
2022/07/06 00:09:20;;;;;;;3.10;2.90;;;26.70;40.90;;;;;;5109637;27;20182;-44
2022/07/06 00:11:45;;;;;;;3.10;2.73;;;26.70;41.10;;;;;;5119759;27;20625;-44
2022/07/06 00:14:11;;;;;;;3.30;2.60;;;26.60;41.00;;;;;;5097354;28;20195;-44
2022/07/06 00:16:37;;;;;;;2.70;2.50;;;26.60;41.20;;;;;;5093995;28;20704;-44
2022/07/06 00:19:02;;;;;;;2.97;2.70;;;26.60;42.00;;;;;;5095380;28;20195;-44
2022/07/06 00:21:28;;;;;;;2.40;2.27;;;26.60;41.20;;;;;;5096757;27;20182;-45
2022/07/06 00:23:54;;;;;;;2.80;2.43;;;26.60;41.10;;;;;;5102554;27;20195;-44
2022/07/06 00:26:19;;;;;;;3.97;2.50;;;26.60;41.00;;;;;;5114124;27;20199;-44
2022/07/06 00:28:45;;;;;;;3.97;2.80;;;26.60;41.00;;;;;;5116019;27;20747;-44
2022/07/06 00:31:11;;;;;;;2.57;2.37;;;26.70;40.70;;;;;;5108333;27;20190;-45
2022/07/06 00:33:37;;;;;;;2.87;2.67;;;26.60;40.40;;;;;;5112171;27;20246;-47
2022/07/06 00:36:03;;;;;;;2.80;2.60;;;26.60;40.20;;;;;;5108258;27;20968;-44
2022/07/06 00:38:29;;;;;;;5.57;2.80;;;26.60;40.40;;;;;;5101762;27;20277;-48
2022/07/06 00:40:54;;;;;;;2.97;2.77;;;26.60;40.30;;;;;;5105462;28;20186;-47
2022/07/06 00:43:20;;;;;;;2.40;2.20;;;26.50;40.60;;;;;;5117403;27;20226;-48
2022/07/06 00:45:45;;;;;;;2.90;2.23;;;26.60;40.50;;;;;;5103858;28;20204;-45
2022/07/06 00:48:12;;;;;;;5.03;2.70;;;26.50;40.30;;;;;;5103967;28;20195;-46
2022/07/06 00:50:38;;;;;;;3.20;3.00;;;26.50;40.50;;;;;;5102565;28;20198;-44
2022/07/06 00:53:05;;;;;;;4.10;2.67;;;26.50;40.70;;;;;;5117835;28;20486;-44
2022/07/06 00:55:39;;;;;;;4.30;2.60;;;26.40;40.90;;;;;;5110481;28;20276;-45
2022/07/06 00:58:05;;;;;;;2.83;2.60;;;26.40;40.70;;;;;;5098383;28;20436;-45
2022/07/06 01:00:32;;;;;;;3.07;2.73;;;26.40;40.70;;;;;;5100892;28;20764;-46
2022/07/06 01:02:57;;;;;;;3.20;2.90;;;26.30;40.60;;;;;;5093051;28;20433;-45
2022/07/06 01:05:24;;;;;;;3.03;2.83;;;26.30;40.70;;;;;;5091102;28;20445;-48
2022/07/06 01:07:52;;;;;;;4.20;2.87;;;26.30;40.90;;;;;;5097912;28;20191;-44
2022/07/06 01:10:19;;;;;;;2.77;2.50;;;26.30;41.30;;;;;;5096006;28;20958;-45
2022/07/06 01:12:46;;;;;;;3.60;3.23;;;26.20;41.50;;;;;;5111565;28;20436;-43
2022/07/06 01:15:23;;;;;;;3.50;3.20;;;26.20;41.80;;;;;;5117051;28;20512;-44
2022/07/06 01:17:49;;;;;;;3.53;2.80;;;26.00;42.10;;;;;;5105803;28;21227;-44
2022/07/06 01:20:19;;;;;;;4.43;3.40;;;25.90;42.20;;;;;;5104583;28;20927;-45
2022/07/06 01:22:46;;;;;;;3.10;2.80;;;25.70;42.30;;;;;;5103084;28;20440;-43
2022/07/06 01:25:12;;;;;;;3.53;3.07;;;25.60;42.60;;;;;;5107278;28;20461;-44
2022/07/06 01:27:40;;;;;;;6.50;3.40;;;25.40;42.90;;;;;;5122504;28;20809;-44
2022/07/06 01:30:08;;;;;;;6.27;3.57;;;25.40;43.40;;;;;;5109596;28;20433;-44
2022/07/06 01:32:34;;;;;;;3.83;3.50;;;25.20;43.70;;;;;;5108565;28;20498;-44
2022/07/06 01:35:00;;;;;;;4.17;3.40;;;25.20;43.80;;;;;;5103313;28;20484;-44
2022/07/06 01:37:26;;;;;;;3.27;3.00;;;25.10;43.90;;;;;;5109726;28;20447;-44
2022/07/06 01:39:51;;;;;;;3.70;3.37;;;25.00;44.20;;;;;;5107017;28;20286;-44
2022/07/06 01:42:17;;;;;;;6.20;3.40;;;25.00;44.10;;;;;;5108513;28;20182;-44
2022/07/06 01:44:44;;;;;;;5.23;3.07;;;24.90;44.20;;;;;;5098733;28;20778;-44
2022/07/06 01:47:10;;;;;;;4.73;3.37;;;24.90;44.40;;;;;;5111158;27;20195;-43
2022/07/06 01:49:35;;;;;;;3.10;2.80;;;24.80;44.50;;;;;;5099262;27;20481;-43
2022/07/06 01:52:01;;;;;;;3.67;3.37;;;24.80;44.60;;;;;;5116205;27;20435;-44
2022/07/06 01:54:27;;;;;;;3.93;3.10;;;24.80;44.70;;;;;;5118844;27;20195;-43
2022/07/06 01:56:52;;;;;;;3.20;3.00;;;24.70;44.80;;;;;;5115862;27;20218;-43
2022/07/06 01:59:18;;;;;;;3.73;2.97;;;24.70;44.90;;;;;;5107352;27;20194;-44
2022/07/06 02:01:44;;;;;;;3.40;3.10;;;24.60;44.80;;;;;;5097042;27;20277;-43
2022/07/06 02:04:09;;;;;;;4.67;2.80;;;24.50;44.80;;;;;;5113507;27;20275;-44
2022/07/06 02:06:35;;;;;;;4.80;2.63;;;24.50;45.00;;;;;;5115402;27;20222;-44
2022/07/06 02:09:00;;;;;;;2.60;2.40;;;24.50;45.20;;;;;;5114844;27;20856;-43
2022/07/06 02:11:27;;;;;;;3.33;2.87;;;24.50;45.00;;;;;;5109174;27;20206;-43
2022/07/06 02:13:53;;;;;;;4.40;2.60;;;24.50;45.00;;;;;;5111921;28;20640;-43
2022/07/06 02:16:19;;;;;;;3.40;3.10;;;24.60;45.20;;;;;;5114297;27;20482;-43
2022/07/06 02:18:44;;;;;;;2.90;2.70;;;24.60;45.10;;;;;;5112369;27;20197;-43
2022/07/06 02:21:10;;;;;;;2.90;2.70;;;24.60;45.10;;;;;;5122014;27;20532;-44
2022/07/06 02:23:35;;;;;;;5.00;2.90;;;24.50;45.10;;;;;;5113301;27;20198;-43
2022/07/06 02:26:01;;;;;;;3.47;2.93;;;24.50;45.30;;;;;;5115226;27;20220;-45
2022/07/06 02:28:27;;;;;;;2.57;2.37;;;24.40;45.40;;;;;;5124922;27;20206;-43
2022/07/06 02:30:52;;;;;;;3.10;2.80;;;24.30;45.40;;;;;;5119177;27;20709;-43
2022/07/06 02:33:18;;;;;;;3.60;3.20;;;24.30;45.50;;;;;;5118770;27;20187;-43
2022/07/06 02:35:44;;;;;;;2.80;2.60;;;24.30;45.80;;;;;;5105066;27;20218;-44
2022/07/06 02:38:10;;;;;;;3.20;2.90;;;24.30;45.70;;;;;;5113258;27;21040;-44
2022/07/06 02:40:36;;;;;;;4.13;3.03;;;24.40;45.60;;;;;;5113389;27;20193;-44
2022/07/06 02:43:02;;;;;;;3.07;2.87;;;24.50;45.40;;;;;;5129499;27;20442;-43
2022/07/06 02:45:28;;;;;;;2.67;2.57;;;24.50;45.30;;;;;;5116033;27;20561;-43
2022/07/06 02:47:55;;;;;;;3.67;3.37;;;24.60;44.90;;;;;;5115915;27;20439;-44
2022/07/06 02:50:21;;;;;;;3.20;2.87;;;24.60;44.50;;;;;;5114752;27;20226;-43
2022/07/06 02:52:47;;;;;;;3.83;3.53;;;24.50;44.40;;;;;;5119795;27;20467;-44
2022/07/06 02:55:13;;;;;;;3.60;3.30;;;24.50;44.50;;;;;;5113390;27;20220;-43
2022/07/06 02:57:38;;;;;;;5.50;3.17;;;24.40;45.10;;;;;;5121925;27;20209;-45
2022/07/06 03:00:05;;;;;;;5.67;3.20;;;24.30;44.40;;;;;;5101135;28;20194;-44
2022/07/06 03:02:31;;;;;;;3.13;2.83;;;24.30;44.40;;;;;;5122659;27;20248;-44
2022/07/06 03:04:57;;;;;;;3.40;3.10;;;24.20;44.50;;;;;;5118816;27;21005;-45
2022/07/06 03:07:22;;;;;;;3.43;3.17;;;24.10;44.50;;;;;;5113397;27;20519;-44
2022/07/06 03:09:48;;;;;;;4.40;3.80;;;24.10;44.60;;;;;;5099497;27;20251;-45
2022/07/06 03:12:14;;;;;;;3.83;3.07;;;24.00;44.60;;;;;;5101332;28;20587;-44
2022/07/06 03:14:39;;;;;;;3.03;2.73;;;24.00;44.60;;;;;;5092478;27;20210;-44
2022/07/06 03:17:05;;;;;;;3.10;2.90;;;24.00;44.50;;;;;;5100351;27;20200;-44
2022/07/06 03:19:31;;;;;;;3.10;2.90;;;24.00;44.70;;;;;;5103807;27;20804;-47
2022/07/06 03:21:56;;;;;;;3.60;3.30;;;24.10;44.80;;;;;;5110429;27;20202;-44
2022/07/06 03:24:22;;;;;;;3.67;2.77;;;24.10;44.30;;;;;;5115263;27;20191;-45
2022/07/06 03:26:47;;;;;;;4.63;3.50;;;24.20;44.50;;;;;;5110900;27;20215;-44
2022/07/06 03:29:13;;;;;;;5.00;3.20;;;24.20;44.30;;;;;;5101655;27;20259;-44
2022/07/06 03:31:38;;;;;;;2.83;2.63;;;24.20;44.00;;;;;;5093897;27;20703;-44
2022/07/06 03:34:04;;;;;;;4.90;3.00;;;24.30;44.70;;;;;;5102945;27;20220;-44
2022/07/06 03:36:30;;;;;;;3.10;2.90;;;24.30;44.20;;;;;;5105486;27;20596;-44
2022/07/06 03:38:55;;;;;;;3.23;2.60;;;24.30;44.20;;;;;;5104952;27;20197;-43
2022/07/06 03:41:21;;;;;;;3.70;2.90;;;24.40;44.50;;;;;;5101118;27;20796;-43
2022/07/06 03:43:47;;;;;;;3.93;2.30;;;24.40;43.90;;;;;;5108493;27;20186;-43
2022/07/06 03:46:12;;;;;;;7.30;3.33;;;24.50;43.90;;;;;;5116963;27;20268;-43
2022/07/06 03:48:38;;;;;;;4.10;3.20;;;24.50;43.90;;;;;;5114825;27;20563;-44
2022/07/06 03:51:03;;;;;;;4.10;3.80;;;24.50;43.80;;;;;;5095267;27;20244;-43
2022/07/06 03:53:29;;;;;;;3.57;3.27;;;24.40;44.20;;;;;;5111547;27;20218;-44
2022/07/06 03:58:39;;;;;;;3.60;3.30;;;24.30;44.50;;;;;;5092733;27;20574;-45
2022/07/06 04:01:05;;;;;;;3.80;3.40;;;24.20;44.50;;;;;;5097685;27;20472;-47
2022/07/06 04:03:30;;;;;;;3.13;2.83;;;24.20;44.40;;;;;;5101742;27;20332;-44
2022/07/06 04:05:56;;;;;;;3.77;3.30;;;24.30;44.60;;;;;;5095339;27;20198;-45
2022/07/06 04:08:21;;;;;;;5.90;5.33;;;24.30;44.20;;;;;;5105141;27;20288;-47
2022/07/06 04:10:47;;;;;;;4.03;3.73;;;24.30;43.90;;;;;;5105678;27;20198;-45
2022/07/06 04:13:13;;;;;;;4.13;3.30;;;24.30;44.40;;;;;;5094261;28;20194;-44
2022/07/06 04:15:39;;;;;;;3.70;3.40;;;24.30;43.90;;;;;;5097886;27;20635;-43
2022/07/06 04:18:05;;;;;;;3.63;3.33;;;24.30;43.80;;;;;;5095968;28;20225;-44
2022/07/06 04:20:30;;;;;;;4.20;3.10;;;24.20;44.00;;;;;;5096296;27;20962;-44
2022/07/06 04:22:56;;;;;;;3.57;3.23;;;24.20;44.00;;;;;;5093299;28;20195;-45
2022/07/06 04:25:22;;;;;;;3.30;3.00;;;24.20;44.00;;;;;;5094890;27;20194;-44
2022/07/06 04:27:47;;;;;;;5.67;3.17;;;24.20;44.20;;;;;;5096306;27;20195;-44
2022/07/06 04:30:13;;;;;;;3.63;3.33;;;24.10;44.30;;;;;;5108890;27;20218;-44
2022/07/06 04:32:39;;;;;;;4.07;3.30;;;24.10;44.70;;;;;;5104165;27;20197;-44
2022/07/06 04:35:05;;;;;;;4.67;3.90;;;24.00;44.70;;;;;;5104354;28;20213;-44
2022/07/06 04:37:31;;;;;;;3.83;3.10;;;24.00;44.70;;;;;;5096219;28;20286;-45
2022/07/06 04:39:57;;;;;;;3.50;3.20;;;24.00;44.90;;;;;;5103423;27;20436;-44
2022/07/06 04:42:23;;;;;;;5.50;3.70;;;24.00;44.90;;;;;;5103741;28;20194;-44
2022/07/06 04:44:48;;;;;;;3.47;3.17;;;24.00;45.00;;;;;;5100551;27;20200;-45
2022/07/06 04:47:14;;;;;;;3.30;3.00;;;24.00;45.00;;;;;;5105827;28;20532;-45
2022/07/06 04:49:40;;;;;;;7.43;3.37;;;24.10;45.10;;;;;;5117525;28;20272;-44
2022/07/06 04:52:06;;;;;;;3.47;3.20;;;24.10;45.00;;;;;;5102721;28;20200;-44
2022/07/06 04:54:32;;;;;;;3.47;3.17;;;24.10;45.00;;;;;;5105048;28;20202;-43
2022/07/06 04:56:57;;;;;;;3.60;3.30;;;24.10;45.30;;;;;;5093980;28;20879;-45
2022/07/06 04:59:23;;;;;;;5.20;3.97;;;24.10;45.30;;;;;;5102736;28;20197;-44
2022/07/06 05:01:49;;;;;;;3.83;3.43;;;24.10;45.20;;;;;;5092039;28;20685;-45
2022/07/06 05:04:14;;;;;;;7.60;2.83;;;24.10;45.30;;;;;;5111252;28;20239;-44
2022/07/06 05:06:40;;;;;;;5.40;3.60;;;24.10;46.00;;;;;;5103266;28;20564;-45
2022/07/06 05:09:06;;;;;;;5.20;3.33;;;24.10;45.40;;;;;;5094152;28;20219;-44
2022/07/06 05:11:31;;;;;;;5.60;3.57;;;24.10;45.80;;;;;;5104198;28;20215;-45
2022/07/06 05:13:57;;;;;;;4.00;3.60;;;24.10;45.70;;;;;;5116555;28;20191;-44
2022/07/06 05:16:23;;;;;;;5.60;3.60;;;24.10;45.70;;;;;;5104767;28;20222;-45
2022/07/06 05:18:49;;;;;;;4.33;3.90;;;24.10;46.00;;;;;;5109851;28;20512;-49
2022/07/06 05:21:15;;;;;;;6.40;3.80;;;24.10;46.20;;;;;;5110629;28;20600;-48
2022/07/06 05:23:41;;;;;;;3.33;3.03;;;24.10;46.20;;;;;;5111413;27;20195;-45
2022/07/06 05:26:07;;;;;;;5.67;3.23;;;24.10;45.90;;;;;;5118321;27;20665;-47
2022/07/06 05:28:32;;;;;;;7.13;3.58;;;24.10;46.20;;;;;;5118155;27;20427;-49
2022/07/06 05:30:59;;;;;;;6.13;3.60;;;24.10;45.80;;;;;;5106923;27;20199;-49
2022/07/06 05:33:24;;;;;;;3.80;3.50;;;24.10;45.80;;;;;;5112532;27;20635;-48
2022/07/06 05:35:50;;;;;;;5.40;4.03;;;24.20;45.80;;;;;;5119508;27;20511;-48
2022/07/06 05:38:16;;;;;;;4.90;3.10;;;24.30;45.70;;;;;;5116686;27;20263;-47
2022/07/06 05:40:41;;;;;;;4.13;3.73;;;24.30;45.60;;;;;;5119384;27;20198;-45
2022/07/06 05:43:07;;;;;;;3.80;3.27;;;24.30;45.70;;;;;;5125164;27;20246;-45
2022/07/06 05:45:32;;;;;;;5.73;3.63;;;24.30;45.80;;;;;;5127920;27;20637;-49
2022/07/06 05:50:42;;;;;;;5.70;4.70;;;24.10;46.10;;;;;;5126680;27;20222;-45
2022/07/06 05:53:08;;;;;;;6.63;4.43;;;24.10;46.00;;;;;;5122427;27;20428;-49
2022/07/06 05:55:33;;;;;;;3.90;3.60;;;24.10;46.00;;;;;;5119900;27;20206;-46
2022/07/06 05:57:59;;;;;;;5.50;4.07;;;24.20;46.00;;;;;;5115522;27;20553;-45
2022/07/06 06:00:26;;;;;;;3.90;3.60;;;24.30;46.10;;;;;;5118823;27;20194;-49
2022/07/06 06:02:52;;;;;;;4.10;3.10;;;24.30;46.10;;;;;;5126265;27;20183;-46
2022/07/06 06:05:18;;;;;;;3.40;3.10;;;24.30;46.10;;;;;;5126624;27;20518;-47
2022/07/06 06:07:46;;;;;;;3.80;3.37;;;24.30;46.10;;;;;;5118726;27;20837;-46
2022/07/06 06:10:14;;;;;;;6.27;3.77;;;24.40;46.30;;;;;;5116897;27;20202;-45
2022/07/06 06:12:40;;;;;;;4.43;3.47;;;24.40;46.10;;;;;;5125475;27;20488;-46
2022/07/06 06:15:07;;;;;;;4.63;3.60;;;24.50;46.30;;;;;;5126148;27;20487;-47
2022/07/06 06:17:33;;;;;;;5.10;3.67;;;24.40;46.20;;;;;;5117279;27;20441;-45
2022/07/06 06:19:59;;;;;;;3.80;3.40;;;24.50;46.40;;;;;;5119919;27;20448;-46
2022/07/06 06:22:25;;;;;;;5.90;3.80;;;24.50;46.10;;;;;;5117799;27;20440;-47
2022/07/06 06:24:51;;;;;;;4.93;3.50;;;24.50;45.40;;;;;;5118308;27;20443;-45
2022/07/06 06:27:17;;;;;;;7.27;2.97;;;24.50;45.20;;;;;;5117217;27;20990;-47
2022/07/06 06:29:44;;;;;;;5.13;2.90;;;24.40;45.70;;;;;;5114665;27;20643;-47
2022/07/06 06:32:10;;;;;;;6.33;3.20;;;24.40;45.10;;;;;;5117460;27;20444;-46
2022/07/06 06:34:36;;;;;;;3.87;3.47;;;24.40;45.00;;;;;;5120328;27;20455;-46
2022/07/06 06:37:02;;;;;;;4.03;3.70;;;24.40;45.00;;;;;;5110120;27;20495;-46
2022/07/06 06:39:28;;;;;;;4.00;3.27;;;24.50;45.00;;;;;;5120326;27;20202;-45
2022/07/06 06:41:53;;;;;;;5.83;3.27;;;24.50;45.00;;;;;;5114618;27;20195;-49
2022/07/06 06:44:22;;;;;;;4.90;2.93;;;24.50;44.80;;;;;;5113545;27;20239;-45
2022/07/06 06:46:52;;;;;;;3.73;3.43;;;24.50;44.70;;;;;;5113470;27;20637;-46
2022/07/06 06:49:17;;;;;;;3.77;3.33;;;24.50;44.50;;;;;;5119303;27;20487;-46
2022/07/06 06:51:43;;;;;;;4.77;3.47;;;24.50;44.50;;;;;;5115154;27;20548;-47
2022/07/06 06:54:09;;;;;;;3.77;3.47;;;24.50;44.50;;;;;;5115185;27;20450;-47
2022/07/06 06:56:35;;;;;;;5.10;2.93;;;24.50;44.50;;;;;;5121307;27;20256;-48
2022/07/06 06:59:01;;;;;;;4.10;2.93;;;24.60;45.20;;;;;;5111725;27;20638;-45
2022/07/06 07:01:27;;;;;;;3.37;3.10;;;24.70;45.30;;;;;;5112943;27;20240;-46
2022/07/06 07:03:54;;;;;;;3.83;3.10;;;24.70;45.10;;;;;;5122981;27;20447;-46
2022/07/06 07:06:20;;;;;;;3.70;3.20;;;24.80;44.80;;;;;;5116178;27;20456;-47
2022/07/06 07:08:46;;;;;;;3.33;3.03;;;24.80;44.20;;;;;;5124948;27;20435;-45
2022/07/06 07:11:11;;;;;;;5.60;3.20;;;24.90;44.10;;;;;;5113080;28;20224;-45
2022/07/06 07:13:37;;;;;;;9.57;3.50;;;25.00;44.50;;;;;;5118301;27;20629;-46
2022/07/06 07:16:03;;;;;;;4.50;3.17;;;25.00;44.20;;;;;;5110839;27;20638;-44
2022/07/06 07:18:29;;;;;;;4.30;3.00;;;25.10;43.90;;;;;;5098929;27;20210;-47
2022/07/06 07:20:54;;;;;;;4.13;2.90;;;25.00;43.00;;;;;;5110929;28;20198;-49
2022/07/06 07:23:20;;;;;;;3.50;3.20;;;25.00;43.70;;;;;;5101750;27;20662;-47
2022/07/06 07:25:45;;;;;;;5.83;3.60;;;25.00;44.10;;;;;;5105304;27;20190;-49
2022/07/06 07:28:11;;;;;;;2.93;2.73;;;25.10;43.80;;;;;;5111030;27;20246;-45
2022/07/06 07:30:36;;;;;;;2.93;2.73;;;25.20;43.70;;;;;;5107499;27;20194;-46
2022/07/06 07:33:02;;;;;;;6.07;3.40;;;25.30;43.00;;;;;;5103559;27;20206;-45
2022/07/06 07:35:28;;;;;;;3.40;3.10;;;25.30;43.40;;;;;;5105737;27;20306;-45
2022/07/06 07:37:53;;;;;;;3.20;3.00;;;25.40;42.80;;;;;;5109961;27;20198;-45
2022/07/06 07:40:19;;;;;;;4.73;3.30;;;25.40;42.10;;;;;;5105839;27;20197;-45
2022/07/06 07:42:45;;;;;;;3.30;2.80;;;25.50;41.90;;;;;;5112888;27;20186;-44
2022/07/06 07:45:12;;;;;;;3.13;2.90;;;25.50;41.90;;;;;;5103620;27;20198;-46
2022/07/06 07:47:38;;;;;;;11.50;3.83;;;25.60;42.30;;;;;;5103660;27;20435;-44
2022/07/06 07:50:05;;;;;;;3.43;2.87;;;25.70;42.10;;;;;;5108409;27;20450;-45
2022/07/06 07:52:31;;;;;;;7.00;3.20;;;25.90;42.10;;;;;;5107984;27;20443;-46
2022/07/06 07:54:56;;;;;;;4.00;3.00;;;26.00;42.10;;;;;;5110085;27;20571;-45
2022/07/06 07:57:22;;;;;;;3.27;3.07;;;26.10;42.40;;;;;;5109736;27;20305;-45
2022/07/06 07:59:48;;;;;;;3.33;2.90;;;26.20;42.50;;;;;;5116214;27;20186;-45
2022/07/06 08:02:13;;;;;;;6.73;3.50;;;26.30;42.30;;;;;;5107625;27;20230;-45
2022/07/06 08:04:39;;;;;;;9.00;3.30;;;26.40;41.90;;;;;;5111186;27;20202;-46
2022/07/06 08:10:27;;;;;;;4.07;3.10;;;26.60;41.30;;;;;;5137006;22;20252;-47
2022/07/06 08:12:52;;;;;;;4.53;3.30;;;26.70;41.70;;;;;;5026749;28;20452;-46
2022/07/06 08:15:18;;;;;;;5.90;2.80;;;26.80;42.00;;;;;;5024593;28;20344;-45
2022/07/06 08:17:44;;;;;;;3.10;2.90;;;26.80;41.70;;;;;;5020673;28;20201;-48
2022/07/06 08:20:10;;;;;;;3.03;2.83;;;26.90;41.00;;;;;;5028162;28;20552;-52
2022/07/06 08:22:36;;;;;;;6.50;3.97;;;27.10;41.20;;;;;;5027926;28;20209;-48
2022/07/06 08:25:01;;;;;;;4.03;2.87;;;27.20;39.50;;;;;;5028352;28;20471;-51
2022/07/06 08:27:27;;;;;;;6.40;3.13;;;27.30;40.00;;;;;;5018177;28;20526;-45
2022/07/06 08:29:53;;;;;;;6.13;3.17;;;27.20;40.00;;;;;;5023608;28;20197;-44
2022/07/06 08:32:19;;;;;;;7.20;3.17;;;27.30;40.00;;;;;;5027307;28;20197;-46
2022/07/06 08:34:45;;;;;;;4.10;2.70;;;27.40;39.90;;;;;;5023429;28;20181;-46
2022/07/06 08:37:20;;;;;;;3.70;3.30;;;27.50;40.00;;;;;;5026438;28;20499;-49
2022/07/06 08:39:46;;;;;;;3.07;2.80;;;27.70;39.70;;;;;;5025410;28;20447;-46
2022/07/06 08:42:14;;;;;;;2.53;2.33;;;27.70;39.40;;;;;;5025671;28;20448;-47
2022/07/06 08:45:00;;;;;;;3.07;2.77;;;27.80;39.50;;;;;;5026639;28;20193;-47
2022/07/06 08:47:27;;;;;;;4.80;3.03;;;27.90;40.00;;;;;;5008516;28;20875;-47
2022/07/06 08:50:02;;;;;;;3.97;3.00;;;27.90;39.60;;;;;;5029177;28;20458;-46
2022/07/06 08:52:28;;;;;;;5.17;3.27;;;28.00;39.30;;;;;;5010466;28;20428;-46
2022/07/06 08:54:54;;;;;;;5.13;3.30;;;28.10;38.80;;;;;;5010052;28;20439;-46
2022/07/06 08:57:19;;;;;;;2.83;2.63;;;28.20;38.20;;;;;;5011648;28;20433;-46
2022/07/06 08:59:45;;;;;;;3.10;2.60;;;28.30;38.00;;;;;;5023381;28;22517;-48
2022/07/06 09:02:11;;;;;;;3.40;2.83;;;28.30;38.70;;;;;;5030763;28;20238;-47
2022/07/06 09:04:37;;;;;;;3.40;2.67;;;28.40;38.70;;;;;;5021575;28;20213;-47
2022/07/06 09:07:03;;;;;;;4.80;2.97;;;28.50;37.80;;;;;;5014315;28;20433;-47
2022/07/06 09:09:33;;;;;;;2.93;2.63;;;28.50;37.40;;;;;;5017338;28;20478;-50
2022/07/06 09:12:02;;;;;;;6.20;2.70;;;28.60;37.60;;;;;;5032052;28;20923;-51
2022/07/06 09:14:29;;;;;;;4.43;3.50;;;28.60;38.70;;;;;;5026882;28;20535;-47
2022/07/06 09:17:05;;;;;;;3.17;2.97;;;28.70;38.60;;;;;;5033704;28;20475;-47
2022/07/06 09:19:32;;;;;;;3.30;3.00;;;28.90;37.60;;;;;;5031995;28;20459;-51
2022/07/06 09:21:58;;;;;;;4.80;3.50;;;29.00;37.60;;;;;;5029497;28;21015;-51
2022/07/06 09:24:26;;;;;;;3.70;3.33;;;29.10;37.40;;;;;;5032911;28;20926;-46
2022/07/06 09:26:55;;;;;;;3.30;3.10;;;29.10;36.90;;;;;;5024712;28;20452;-46
2022/07/06 09:29:32;;;;;;;4.67;3.50;;;29.20;37.10;;;;;;5017272;28;20455;-46
2022/07/06 09:31:59;;;;;;;3.47;3.17;;;29.20;36.70;;;;;;5030361;28;20443;-48
2022/07/06 09:34:32;;;;;;;3.33;3.03;;;29.30;36.90;;;;;;5031975;28;20444;-49
2022/07/06 09:36:58;;;;;;;3.60;3.27;;;29.30;37.50;;;;;;5030139;28;20502;-47
2022/07/06 09:39:28;;;;;;;2.87;2.67;;;29.40;37.30;;;;;;5029619;28;20444;-44
2022/07/06 09:41:56;;;;;;;3.70;2.70;;;29.60;36.80;;;;;;5024615;28;20618;-49
2022/07/06 09:44:24;;;;;;;9.50;3.00;;;29.80;36.50;;;;;;5024914;28;20421;-49
2022/07/06 09:46:50;;;;;;;7.23;3.00;;;29.90;36.20;;;;;;5028920;28;20456;-45
2022/07/06 09:49:22;;;;;;;8.70;3.30;;;30.00;36.60;;;;;;5028287;28;20848;-46
2022/07/06 09:51:49;;;;;;;4.27;3.27;;;30.10;35.90;;;;;;5029333;28;20523;-45
2022/07/06 09:54:16;;;;;;;3.63;3.30;;;30.20;36.00;;;;;;5032516;28;20496;-46
2022/07/06 09:56:47;;;;;;;4.70;2.97;;;30.20;35.60;;;;;;5029288;28;20533;-45
2022/07/06 09:59:15;;;;;;;5.83;2.97;;;30.30;35.20;;;;;;5030627;28;20971;-45
2022/07/06 10:01:44;;;;;;;3.13;2.93;;;30.50;35.10;;;;;;5026216;28;20454;-45
2022/07/06 10:04:14;;;;;;;5.77;3.40;;;30.70;34.70;;;;;;5027537;28;20440;-46
2022/07/06 10:06:41;;;;;;;4.47;3.00;;;30.60;35.40;;;;;;5032059;28;20463;-45
2022/07/06 10:09:08;;;;;;;4.13;2.83;;;30.90;35.30;;;;;;5023664;28;20486;-47
2022/07/06 10:11:43;;;;;;;5.60;2.83;;;31.00;35.20;;;;;;5026281;28;20470;-48
2022/07/06 10:14:11;;;;;;;2.80;2.60;;;31.20;35.10;;;;;;5017341;28;20452;-45
2022/07/06 10:16:38;;;;;;;3.87;2.43;;;31.30;34.00;;;;;;5021594;28;20916;-47
2022/07/06 10:19:06;;;;;;;3.30;3.00;;;31.40;33.90;;;;;;5017189;28;21000;-47
2022/07/06 10:21:37;;;;;;;3.80;3.50;;;31.50;34.60;;;;;;5025660;28;20448;-46
2022/07/06 10:24:05;;;;;;;3.57;2.93;;;31.50;33.90;;;;;;5018611;28;20957;-45
2022/07/06 10:26:33;;;;;;;3.67;2.93;;;31.70;34.50;;;;;;5029412;28;20436;-48
2022/07/06 10:29:00;;;;;;;8.43;3.23;;;31.70;33.70;;;;;;5030863;28;20875;-46
2022/07/06 10:31:28;;;;;;;6.70;3.60;;;31.70;33.20;;;;;;5029023;28;20458;-48
2022/07/06 10:33:56;;;;;;;12.23;4.00;;;31.70;33.30;;;;;;5030487;28;20829;-47
2022/07/06 10:36:22;;;;;;;5.07;3.80;;;31.70;33.40;;;;;;5028457;28;20484;-48
2022/07/06 10:38:52;;;;;;;5.07;2.87;;;31.70;32.70;;;;;;5027791;28;20517;-46
2022/07/06 10:41:29;;;;;;;4.23;3.83;;;31.70;33.30;;;;;;5031717;28;21266;-45
2022/07/06 10:43:57;;;;;;;7.60;3.53;;;31.80;34.10;;;;;;5028181;28;20480;-48
2022/07/06 10:46:23;;;;;;;4.77;3.10;;;31.80;33.50;;;;;;5028996;28;20813;-46
2022/07/06 10:48:49;;;;;;;6.60;3.47;;;31.70;33.70;;;;;;5027056;28;20469;-49
2022/07/06 10:51:26;;;;;;;9.80;3.10;;;31.70;33.00;;;;;;5025893;28;20440;-46
2022/07/06 10:53:56;;;;;;;4.40;3.03;;;31.60;33.30;;;;;;5028029;28;20448;-47
2022/07/06 10:56:36;;;;;;;4.50;2.93;;;31.70;34.10;;;;;;5028060;28;20484;-46
2022/07/06 10:59:08;;;;;;;5.43;3.33;;;31.70;32.60;;;;;;5028371;28;20456;-46
2022/07/06 11:02:01;;;;;;;5.97;3.00;;;31.70;32.60;;;;;;5022540;28;20440;-48
2022/07/06 11:04:34;;;;;;;4.30;2.80;;;31.60;32.90;;;;;;5026333;28;20502;-50
2022/07/06 11:07:18;;;;;;;9.20;3.40;;;31.50;33.00;;;;;;5022256;28;20494;-50
2022/07/06 11:09:57;;;;;;;3.50;2.93;;;31.50;32.80;;;;;;5029618;28;20512;-48
2022/07/06 11:12:23;;;;;;;2.97;2.77;;;31.50;33.30;;;;;;5028498;28;20447;-50
2022/07/06 11:14:50;;;;;;;3.63;3.10;;;31.50;32.70;;;;;;5031505;28;20455;-50
2022/07/06 11:17:17;;;;;;;3.07;2.70;;;31.50;33.20;;;;;;5027951;28;20499;-46
2022/07/06 11:20:18;;;;;;;2.83;2.63;;;31.50;33.90;;;;;;5030308;28;20424;-48
2022/07/06 11:22:44;;;;;;;3.50;2.27;;;31.60;32.90;;;;;;4979306;28;20473;-45
2022/07/06 11:25:10;;;;;;;2.97;2.63;;;31.70;33.40;;;;;;5020819;28;20448;-49
2022/07/06 11:27:36;;;;;;;2.87;2.67;;;31.70;32.20;;;;;;5028646;28;20189;-44
2022/07/06 11:30:02;;;;;;;4.80;2.63;;;31.80;32.30;;;;;;5027682;28;20443;-45
2022/07/06 11:32:28;;;;;;;5.23;2.97;;;31.90;32.10;;;;;;5027186;28;20543;-46
2022/07/06 11:34:54;;;;;;;4.27;3.27;;;31.90;31.50;;;;;;5021989;28;20228;-47
2022/07/06 11:37:20;;;;;;;3.97;3.00;;;31.60;31.10;;;;;;5027263;28;21055;-45
2022/07/06 11:39:47;;;;;;;5.60;3.13;;;31.60;31.90;;;;;;5030030;28;20668;-46
2022/07/06 11:42:22;;;;;;;4.40;2.50;;;31.70;32.20;;;;;;5029900;28;20440;-47
2022/07/06 11:44:50;;;;;;;3.37;3.17;;;31.90;31.70;;;;;;5025845;28;20963;-46
2022/07/06 11:47:15;;;;;;;3.40;3.10;;;31.70;31.80;;;;;;5029667;28;21232;-48
2022/07/06 11:49:41;;;;;;;5.00;3.00;;;31.60;32.20;;;;;;5025485;28;20477;-47
2022/07/06 11:52:12;;;;;;;3.70;3.17;;;31.40;32.20;;;;;;5026454;28;20275;-46
2022/07/06 11:54:39;;;;;;;2.90;2.70;;;31.50;32.20;;;;;;5029375;28;20455;-49
2022/07/06 11:57:07;;;;;;;3.83;3.30;;;31.50;32.20;;;;;;5028697;28;20491;-45
2022/07/06 11:59:35;;;;;;;3.57;2.80;;;31.50;32.60;;;;;;5025964;28;20448;-46
2022/07/06 12:02:06;;;;;;;4.50;2.70;;;31.40;32.30;;;;;;5026548;28;20857;-48
2022/07/06 12:04:33;;;;;;;9.43;3.33;;;31.50;32.40;;;;;;5022256;28;20810;-47
2022/07/06 12:07:11;;;;;;;2.90;2.40;;;31.50;32.30;;;;;;5019779;28;20534;-51
2022/07/06 12:09:40;;;;;;;6.23;2.97;;;31.60;32.50;;;;;;5021617;28;20989;-47
2022/07/06 12:12:06;;;;;;;4.43;3.10;;;31.60;32.40;;;;;;5025524;28;20448;-47
2022/07/06 12:14:34;;;;;;;3.63;2.97;;;31.40;32.50;;;;;;5019297;28;20445;-46
2022/07/06 12:17:17;;;;;;;3.13;2.93;;;31.30;33.00;;;;;;5026657;28;20994;-46
2022/07/06 12:19:43;;;;;;;3.50;2.90;;;31.30;33.20;;;;;;5026709;28;21359;-44
2022/07/06 12:22:10;;;;;;;8.13;2.83;;;31.30;32.90;;;;;;5019675;28;20951;-45
2022/07/06 12:24:37;;;;;;;3.07;2.70;;;31.20;32.90;;;;;;5025686;28;20440;-45
2022/07/06 12:27:14;;;;;;;4.73;3.00;;;31.20;32.60;;;;;;5023066;28;20440;-48
2022/07/06 12:29:40;;;;;;;3.53;3.23;;;31.00;32.90;;;;;;5024884;28;20459;-46
2022/07/06 12:32:06;;;;;;;5.97;3.03;;;31.10;33.30;;;;;;5028598;28;20570;-46
2022/07/06 12:34:34;;;;;;;3.33;2.60;;;30.90;33.80;;;;;;5022357;28;20237;-47
2022/07/06 12:37:06;;;;;;;6.83;3.10;;;31.00;33.40;;;;;;5026328;28;21001;-47
2022/07/06 12:39:32;;;;;;;3.47;3.17;;;31.00;33.50;;;;;;5026271;28;20456;-48
2022/07/06 12:42:04;;;;;;;3.80;3.40;;;31.00;33.40;;;;;;5024115;28;20440;-47
2022/07/06 12:44:31;;;;;;;4.17;2.93;;;31.10;33.30;;;;;;5025930;28;20192;-45
2022/07/06 12:47:08;;;;;;;9.53;3.00;;;31.20;33.00;;;;;;5022572;28;20951;-47
2022/07/06 12:49:35;;;;;;;3.80;3.50;;;31.10;33.10;;;;;;5025872;28;20464;-46
2022/07/06 12:52:08;;;;;;;3.87;3.43;;;31.20;33.40;;;;;;5028673;28;20437;-47
2022/07/06 12:54:41;;;;;;;3.97;2.93;;;31.20;33.70;;;;;;5019543;28;20452;-48
2022/07/06 12:57:18;;;;;;;4.37;3.43;;;31.20;33.10;;;;;;5021953;28;20986;-48